createdAt,value
2023-05-07T00:00:25.532Z,6.45
2023-05-07T00:03:22.601Z,6.16
2023-05-07T00:06:09.077Z,6.45
2023-05-07T00:08:57.081Z,6.29
2023-05-07T00:11:42.895Z,6.32
2023-05-07T00:14:29.471Z,6.39
2023-05-07T00:17:15.335Z,6.37
2023-05-07T00:20:01.669Z,6.38
2023-05-07T00:22:48.228Z,6.24
2023-05-07T00:25:34.345Z,6.21
2023-05-07T00:28:20.564Z,6.02
2023-05-07T00:31:07.051Z,6.20
2023-05-07T00:33:53.177Z,6.18
2023-05-07T00:36:39.092Z,5.99
2023-05-07T00:39:25.105Z,6.12
2023-05-07T00:42:11.409Z,5.83
2023-05-07T00:44:57.707Z,5.94
2023-05-07T00:47:44.342Z,5.96
2023-05-07T00:50:30.602Z,5.92
2023-05-07T00:53:17.026Z,5.91
2023-05-07T00:56:03.494Z,5.95
2023-05-07T00:58:50.286Z,5.97
2023-05-07T01:01:36.435Z,5.70
2023-05-07T01:04:22.588Z,5.84
2023-05-07T01:07:09.261Z,5.87
2023-05-07T01:09:55.856Z,5.97
2023-05-07T01:12:42.386Z,5.91
2023-05-07T01:15:28.796Z,5.87
2023-05-07T01:18:16.381Z,6.02
2023-05-07T01:21:03.154Z,6.05
2023-05-07T01:23:49.678Z,5.87
2023-05-07T01:26:36.865Z,5.81
2023-05-07T01:29:23.058Z,5.99
2023-05-07T01:32:09.812Z,6.00
2023-05-07T01:34:56.812Z,5.97
2023-05-07T01:37:43.454Z,5.96
2023-05-07T01:40:29.507Z,5.87
2023-05-07T01:43:16.525Z,5.93
2023-05-07T01:46:03.958Z,5.82
2023-05-07T01:48:51.115Z,5.84
2023-05-07T01:51:37.542Z,5.86
2023-05-07T01:54:30.236Z,5.86
2023-05-07T01:57:17.190Z,5.63
2023-05-07T02:00:06.123Z,5.66
2023-05-07T02:03:01.627Z,5.75
2023-05-07T02:06:10.521Z,5.76
2023-05-07T02:08:58.595Z,5.78
2023-05-07T02:11:45.364Z,5.90
2023-05-07T02:14:31.747Z,5.77
2023-05-07T02:17:17.539Z,5.90
2023-05-07T02:20:05.038Z,5.88
2023-05-07T02:22:51.166Z,5.74
2023-05-07T02:25:37.228Z,5.96
2023-05-07T02:28:23.667Z,5.92
2023-05-07T02:31:21.252Z,6.04
2023-05-07T02:34:07.687Z,5.99
2023-05-07T02:36:53.911Z,5.98
2023-05-07T02:39:43.239Z,6.01
2023-05-07T02:42:29.476Z,6.09
2023-05-07T02:45:15.993Z,6.19
2023-05-07T02:48:03.119Z,6.06
2023-05-07T02:50:49.599Z,6.13
2023-05-07T02:53:35.802Z,6.08
2023-05-07T02:56:22.240Z,6.29
2023-05-07T02:59:08.754Z,6.12
2023-05-07T03:01:59.611Z,6.31
2023-05-07T03:04:45.872Z,5.90
2023-05-07T03:07:32.300Z,6.14
2023-05-07T03:10:19.564Z,6.10
2023-05-07T03:13:06.383Z,6.00
2023-05-07T03:15:52.149Z,6.09
2023-05-07T03:18:38.796Z,6.06
2023-05-07T03:21:25.002Z,6.01
2023-05-07T03:24:11.155Z,6.05
2023-05-07T03:26:56.867Z,5.95
2023-05-07T03:29:43.674Z,5.97
2023-05-07T03:32:29.478Z,5.95
2023-05-07T03:35:15.788Z,5.92
2023-05-07T03:38:02.566Z,5.83
2023-05-07T03:40:53.055Z,5.88
2023-05-07T03:43:39.207Z,5.82
2023-05-07T03:46:29.538Z,5.79
2023-05-07T03:49:15.882Z,5.78
2023-05-07T03:52:02.210Z,5.42
2023-05-07T03:54:48.502Z,5.65
2023-05-07T03:57:36.314Z,5.68
2023-05-07T04:00:23.291Z,5.58
2023-05-07T04:03:09.704Z,5.61
2023-05-07T04:05:56.058Z,5.37
2023-05-07T04:08:42.718Z,5.67
2023-05-07T04:11:29.005Z,5.74
2023-05-07T04:14:15.610Z,6.16
2023-05-07T04:17:01.959Z,6.45
2023-05-07T04:19:48.808Z,7.10
2023-05-07T04:22:36.309Z,7.55
2023-05-07T04:25:27.847Z,7.68
2023-05-07T04:28:19.523Z,8.22
2023-05-07T04:31:06.600Z,8.39
2023-05-07T04:33:54.896Z,8.72
2023-05-07T04:36:43.514Z,8.83
2023-05-07T04:39:31.831Z,9.03
2023-05-07T04:42:18.897Z,9.09
2023-05-07T04:45:06.310Z,9.05
2023-05-07T04:47:54.960Z,9.16
2023-05-07T04:50:40.895Z,9.31
2023-05-07T04:53:27.845Z,9.36
2023-05-07T04:56:15.900Z,9.39
2023-05-07T04:59:03.990Z,9.38
2023-05-07T05:01:50.710Z,9.35
2023-05-07T05:04:37.993Z,9.29
2023-05-07T05:07:25.082Z,9.52
2023-05-07T05:10:12.065Z,9.57
2023-05-07T05:13:00.039Z,9.57
2023-05-07T05:15:47.614Z,9.56
2023-05-07T05:18:34.006Z,9.43
2023-05-07T05:21:21.403Z,9.53
2023-05-07T05:24:10.529Z,9.63
2023-05-07T05:26:57.729Z,9.73
2023-05-07T05:29:44.616Z,9.84
2023-05-07T05:32:31.483Z,9.78
2023-05-07T05:35:17.692Z,10.01
2023-05-07T05:38:04.801Z,10.05
2023-05-07T05:40:52.260Z,10.22
2023-05-07T05:43:39.794Z,10.39
2023-05-07T05:46:26.690Z,10.01
2023-05-07T05:49:13.592Z,10.27
2023-05-07T05:52:00.587Z,10.20
2023-05-07T05:54:47.488Z,10.50
2023-05-07T05:57:34.387Z,10.54
2023-05-07T06:00:23.786Z,10.58
2023-05-07T06:03:18.528Z,10.67
2023-05-07T06:06:06.928Z,10.84
2023-05-07T06:08:53.733Z,10.93
2023-05-07T06:11:45.803Z,10.93
2023-05-07T06:14:33.356Z,11.04
2023-05-07T06:17:22.107Z,11.06
2023-05-07T06:20:11.543Z,11.11
2023-05-07T06:23:00.373Z,11.17
2023-05-07T06:25:54.086Z,11.18
2023-05-07T06:28:44.315Z,11.14
2023-05-07T06:31:33.116Z,11.04
2023-05-07T06:34:26.022Z,10.97
2023-05-07T06:37:11.874Z,10.96
2023-05-07T06:40:20.724Z,11.14
2023-05-07T06:43:08.395Z,11.05
2023-05-07T06:46:02.503Z,11.11
2023-05-07T06:48:49.109Z,11.33
2023-05-07T06:51:36.022Z,11.31
2023-05-07T06:54:24.415Z,11.28
2023-05-07T06:57:11.580Z,11.15
2023-05-07T06:59:57.833Z,11.04
2023-05-07T07:02:44.699Z,11.18
2023-05-07T07:05:32.893Z,11.04
2023-05-07T07:08:23.468Z,11.47
2023-05-07T07:11:11.388Z,11.36
2023-05-07T07:13:57.730Z,11.44
2023-05-07T07:16:43.727Z,11.36
2023-05-07T07:19:30.037Z,11.68
2023-05-07T07:22:18.133Z,11.57
2023-05-07T07:25:05.545Z,11.24
2023-05-07T07:27:51.701Z,11.08
2023-05-07T07:30:38.940Z,11.21
2023-05-07T07:33:24.939Z,11.11
2023-05-07T07:36:11.716Z,11.42
2023-05-07T07:38:58.629Z,11.37
2023-05-07T07:41:45.341Z,11.23
2023-05-07T07:44:32.262Z,10.99
2023-05-07T07:47:23.996Z,11.13
2023-05-07T07:50:14.827Z,10.96
2023-05-07T07:53:06.012Z,10.82
2023-05-07T07:55:53.128Z,10.61
2023-05-07T07:58:42.859Z,10.49
2023-05-07T08:01:31.824Z,10.51
2023-05-07T08:04:19.299Z,10.54
2023-05-07T08:07:05.769Z,10.34
2023-05-07T08:09:56.631Z,10.17
2023-05-07T08:12:44.071Z,10.33
2023-05-07T08:15:30.464Z,10.17
2023-05-07T08:18:16.542Z,10.19
2023-05-07T08:21:04.652Z,10.36
2023-05-07T08:23:51.435Z,10.28
2023-05-07T08:26:40.580Z,10.29
2023-05-07T08:29:28.014Z,10.38
2023-05-07T08:32:14.528Z,10.19
2023-05-07T08:35:01.264Z,10.19
2023-05-07T08:37:47.927Z,10.16
2023-05-07T08:40:39.122Z,10.10
2023-05-07T08:43:30.173Z,9.98
2023-05-07T08:46:24.129Z,9.76
2023-05-07T08:49:14.947Z,10.06
2023-05-07T08:52:01.597Z,10.06
2023-05-07T08:54:48.873Z,10.04
2023-05-07T08:57:36.490Z,10.23
2023-05-07T09:00:23.884Z,10.34
2023-05-07T09:03:15.569Z,10.38
2023-05-07T09:06:06.388Z,10.46
2023-05-07T09:08:54.578Z,10.61
2023-05-07T09:11:43.654Z,10.89
2023-05-07T09:14:34.511Z,10.72
2023-05-07T09:17:22.459Z,10.79
2023-05-07T09:20:10.792Z,10.77
2023-05-07T09:23:00.299Z,10.64
2023-05-07T09:25:47.417Z,10.74
2023-05-07T09:28:44.386Z,10.71
2023-05-07T09:31:32.476Z,10.70
2023-05-07T09:34:19.364Z,10.62
2023-05-07T09:37:07.488Z,10.60
2023-05-07T09:39:54.237Z,10.61
2023-05-07T09:42:42.889Z,10.61
2023-05-07T09:45:30.029Z,10.63
2023-05-07T09:48:18.186Z,10.46
2023-05-07T09:51:10.660Z,10.40
2023-05-07T09:54:02.302Z,10.81
2023-05-07T09:56:50.372Z,10.87
2023-05-07T09:59:39.553Z,10.91
2023-05-07T10:02:31.599Z,10.94
2023-05-07T10:05:18.069Z,11.01
2023-05-07T10:08:05.056Z,10.77
2023-05-07T10:10:54.055Z,10.78
2023-05-07T10:13:44.743Z,10.79
2023-05-07T10:16:33.852Z,10.96
2023-05-07T10:19:20.623Z,10.96
2023-05-07T10:22:11.496Z,11.07
2023-05-07T10:25:03.995Z,11.03
2023-05-07T10:27:51.923Z,11.04
2023-05-07T10:31:13.364Z,10.97
2023-05-07T10:34:09.370Z,10.76
2023-05-07T10:36:57.547Z,11.17
2023-05-07T10:39:44.485Z,11.29
2023-05-07T10:42:31.616Z,11.40
2023-05-07T10:45:17.954Z,11.47
2023-05-07T10:51:21.818Z,11.80
2023-05-07T10:54:12.627Z,12.08
2023-05-07T10:57:29.677Z,12.46
2023-05-07T11:03:23.596Z,12.25
2023-05-07T11:06:17.055Z,12.14
2023-05-07T11:09:14.371Z,11.88
2023-05-07T11:12:13.614Z,11.89
2023-05-07T11:15:12.006Z,11.77
2023-05-07T11:18:00.833Z,11.58
2023-05-07T11:20:53.540Z,11.84
2023-05-07T11:24:04.143Z,11.80
2023-05-07T11:27:10.583Z,11.84
2023-05-07T11:29:57.418Z,11.73
2023-05-07T11:32:43.297Z,11.80
2023-05-07T11:35:30.223Z,11.74
2023-05-07T11:38:16.851Z,11.60
2023-05-07T11:41:06.376Z,11.57
2023-05-07T11:43:57.773Z,11.72
2023-05-07T11:46:45.374Z,11.81
2023-05-07T11:49:31.498Z,11.91
2023-05-07T11:52:19.809Z,11.96
2023-05-07T11:55:06.034Z,11.96
2023-05-07T11:57:52.170Z,11.80
2023-05-07T12:00:38.399Z,11.78
2023-05-07T12:03:25.082Z,11.89
2023-05-07T12:06:13.043Z,12.00
2023-05-07T12:09:02.541Z,11.99
2023-05-07T12:11:50.630Z,12.05
2023-05-07T12:14:46.102Z,12.03
2023-05-07T12:17:34.537Z,11.95
2023-05-07T12:20:21.208Z,12.02
2023-05-07T12:23:08.468Z,11.93
2023-05-07T12:25:55.395Z,12.06
2023-05-07T12:28:42.396Z,12.04
2023-05-07T12:31:30.041Z,12.02
2023-05-07T12:34:17.140Z,12.22
2023-05-07T12:37:05.182Z,12.38
2023-05-07T12:40:09.227Z,12.46
2023-05-07T12:42:57.326Z,12.68
2023-05-07T12:45:46.109Z,12.65
2023-05-07T12:48:33.621Z,12.67
2023-05-07T12:51:20.112Z,12.65
2023-05-07T12:54:07.189Z,12.53
2023-05-07T12:57:10.740Z,12.57
2023-05-07T12:59:59.378Z,12.80
2023-05-07T13:02:47.315Z,12.87
2023-05-07T13:05:34.770Z,12.92
2023-05-07T13:08:35.544Z,12.77
2023-05-07T13:11:22.768Z,12.51
2023-05-07T13:14:09.584Z,12.47
2023-05-07T13:16:57.087Z,12.61
2023-05-07T13:19:43.935Z,12.69
2023-05-07T13:22:30.744Z,12.64
2023-05-07T13:25:17.608Z,12.91
2023-05-07T13:28:10.584Z,13.02
2023-05-07T13:30:58.436Z,13.19
2023-05-07T13:33:45.045Z,13.29
2023-05-07T13:36:34.341Z,13.22
2023-05-07T13:39:21.253Z,13.04
2023-05-07T13:42:08.143Z,12.96
2023-05-07T13:44:55.014Z,12.66
2023-05-07T13:47:44.743Z,12.10
2023-05-07T13:50:31.312Z,12.37
2023-05-07T13:53:19.572Z,12.29
2023-05-07T13:56:07.139Z,12.31
2023-05-07T13:59:00.104Z,12.48
2023-05-07T14:01:48.494Z,12.52
2023-05-07T14:04:34.915Z,12.33
2023-05-07T14:07:21.909Z,12.21
2023-05-07T14:10:08.390Z,12.32
2023-05-07T14:12:55.670Z,12.39
2023-05-07T14:15:43.477Z,12.33
2023-05-07T14:18:30.855Z,12.48
2023-05-07T14:21:17.895Z,12.54
2023-05-07T14:24:05.556Z,12.53
2023-05-07T14:26:51.864Z,12.76
2023-05-07T14:29:38.122Z,12.86
2023-05-07T14:32:24.529Z,12.80
2023-05-07T14:35:11.495Z,12.91
2023-05-07T14:37:58.396Z,12.79
2023-05-07T14:40:46.476Z,12.75
2023-05-07T14:43:32.808Z,12.72
2023-05-07T14:46:20.852Z,12.46
2023-05-07T14:49:13.620Z,12.52
2023-05-07T14:52:04.340Z,12.45
2023-05-07T14:54:53.332Z,12.37
2023-05-07T14:57:42.607Z,12.41
2023-05-07T15:00:30.438Z,12.38
2023-05-07T15:03:18.398Z,12.38
2023-05-07T15:06:05.752Z,12.49
2023-05-07T15:08:52.067Z,12.44
2023-05-07T15:11:38.104Z,12.41
2023-05-07T15:14:24.625Z,12.30
2023-05-07T15:17:11.109Z,12.50
2023-05-07T15:19:57.499Z,12.46
2023-05-07T15:22:43.816Z,12.49
2023-05-07T15:25:32.248Z,12.43
2023-05-07T15:28:18.949Z,12.38
2023-05-07T15:31:06.951Z,12.57
2023-05-07T15:33:53.377Z,12.41
2023-05-07T15:36:39.817Z,12.50
2023-05-07T15:39:26.419Z,12.61
2023-05-07T15:42:13.253Z,12.56
2023-05-07T15:45:01.425Z,12.43
2023-05-07T15:47:48.758Z,12.40
2023-05-07T15:50:35.500Z,12.38
2023-05-07T15:53:22.910Z,12.35
2023-05-07T15:56:08.954Z,12.33
2023-05-07T15:58:56.245Z,12.43
2023-05-07T16:01:43.944Z,12.51
2023-05-07T16:04:30.440Z,12.56
2023-05-07T16:07:16.485Z,12.27
2023-05-07T16:10:06.450Z,12.30
2023-05-07T16:12:52.405Z,12.33
2023-05-07T16:15:39.733Z,12.34
2023-05-07T16:18:26.080Z,12.35
2023-05-07T16:21:13.151Z,12.13
2023-05-07T16:23:59.175Z,12.32
2023-05-07T16:26:45.746Z,12.31
2023-05-07T16:29:31.840Z,12.19
2023-05-07T16:32:18.687Z,12.41
2023-05-07T16:35:04.956Z,12.34
2023-05-07T16:37:51.223Z,12.33
2023-05-07T16:40:40.602Z,12.09
2023-05-07T16:43:27.421Z,12.22
2023-05-07T16:46:13.408Z,12.20
2023-05-07T16:48:59.978Z,12.12
2023-05-07T16:51:48.800Z,12.07
2023-05-07T16:54:37.060Z,12.02
2023-05-07T16:57:22.838Z,11.95
2023-05-07T17:00:11.721Z,11.86
2023-05-07T17:02:58.030Z,11.77
2023-05-07T17:05:44.354Z,11.75
2023-05-07T17:08:29.996Z,11.70
2023-05-07T17:11:16.583Z,11.73
2023-05-07T17:14:05.359Z,11.73
2023-05-07T17:16:52.139Z,11.68
2023-05-07T17:19:40.061Z,11.72
2023-05-07T17:22:27.154Z,11.66
2023-05-07T17:25:14.943Z,11.47
2023-05-07T17:28:02.018Z,11.64
2023-05-07T17:30:48.983Z,11.52
2023-05-07T17:33:35.241Z,11.68
2023-05-07T17:36:20.887Z,11.74
2023-05-07T17:39:07.205Z,12.37
2023-05-07T17:41:53.409Z,12.67
2023-05-07T17:44:40.108Z,12.66
2023-05-07T17:47:26.437Z,12.32
2023-05-07T17:50:14.115Z,12.06
2023-05-07T17:53:00.793Z,11.91
2023-05-07T17:55:47.959Z,11.64
2023-05-07T17:58:36.556Z,11.47
2023-05-07T18:01:27.958Z,11.34
2023-05-07T18:04:14.270Z,11.31
2023-05-07T18:07:00.538Z,11.31
2023-05-07T18:09:46.373Z,11.23
2023-05-07T18:12:32.895Z,11.07
2023-05-07T18:15:19.530Z,11.05
2023-05-07T18:18:06.065Z,10.92
2023-05-07T18:20:52.432Z,10.87
2023-05-07T18:23:38.651Z,10.77
2023-05-07T18:26:24.613Z,10.79
2023-05-07T18:29:13.688Z,10.72
2023-05-07T18:32:00.013Z,10.61
2023-05-07T18:34:46.763Z,10.63
2023-05-07T18:37:34.090Z,10.70
2023-05-07T18:40:21.224Z,10.78
2023-05-07T18:43:07.341Z,10.71
2023-05-07T18:45:53.907Z,10.49
2023-05-07T18:48:40.746Z,10.46
2023-05-07T18:51:27.330Z,10.47
2023-05-07T18:54:14.300Z,10.45
2023-05-07T18:57:01.249Z,10.44
2023-05-07T18:59:47.632Z,10.34
2023-05-07T19:02:34.194Z,10.21
2023-05-07T19:05:20.796Z,10.17
2023-05-07T19:08:07.204Z,9.78
2023-05-07T19:10:56.602Z,9.68
2023-05-07T19:13:43.595Z,9.65
2023-05-07T19:16:29.715Z,9.38
2023-05-07T19:19:16.221Z,9.59
2023-05-07T19:22:02.014Z,9.41
2023-05-07T19:24:48.628Z,9.40
2023-05-07T19:27:34.692Z,9.44
2023-05-07T19:30:21.622Z,9.47
2023-05-07T19:33:07.781Z,9.37
2023-05-07T19:35:58.353Z,9.41
2023-05-07T19:38:45.295Z,9.30
2023-05-07T19:41:31.360Z,9.22
2023-05-07T19:44:17.800Z,9.18
2023-05-07T19:47:05.812Z,9.09
2023-05-07T19:49:51.757Z,9.04
2023-05-07T19:52:38.609Z,9.17
2023-05-07T19:55:24.821Z,9.13
2023-05-07T19:58:11.384Z,9.27
2023-05-07T20:00:57.933Z,9.12
2023-05-07T20:03:45.097Z,9.27
2023-05-07T20:06:31.523Z,9.32
2023-05-07T20:09:17.868Z,9.44
2023-05-07T20:12:04.178Z,9.37
2023-05-07T20:14:50.746Z,9.06
2023-05-07T20:17:37.542Z,9.18
2023-05-07T20:20:25.651Z,8.97
2023-05-07T20:23:12.303Z,8.80
2023-05-07T20:25:59.086Z,9.02
2023-05-07T20:28:45.220Z,9.21
2023-05-07T20:31:32.493Z,9.34
2023-05-07T20:34:18.449Z,8.90
2023-05-07T20:37:06.034Z,9.09
2023-05-07T20:39:51.905Z,9.07
2023-05-07T20:42:38.449Z,9.10
2023-05-07T20:45:24.322Z,9.11
2023-05-07T20:48:11.031Z,9.34
2023-05-07T20:51:01.285Z,9.70
2023-05-07T20:53:48.111Z,9.78
2023-05-07T20:56:34.524Z,10.01
2023-05-07T20:59:20.769Z,10.01
2023-05-07T21:02:10.065Z,9.84
2023-05-07T21:04:56.493Z,9.88
2023-05-07T21:07:42.093Z,10.03
2023-05-07T21:10:28.776Z,10.01
2023-05-07T21:13:15.144Z,9.94
2023-05-07T21:16:01.297Z,10.18
2023-05-07T21:18:47.328Z,10.23
2023-05-07T21:21:34.182Z,10.22
2023-05-07T21:24:20.094Z,10.33
2023-05-07T21:27:06.712Z,10.33
2023-05-07T21:29:52.884Z,10.33
2023-05-07T21:32:39.335Z,10.43
2023-05-07T21:35:25.660Z,10.41
2023-05-07T21:38:14.786Z,10.48
2023-05-07T21:41:00.953Z,10.38
2023-05-07T21:43:47.616Z,10.43
2023-05-07T21:46:34.233Z,10.50
2023-05-07T21:49:20.731Z,10.33
2023-05-07T21:52:11.733Z,10.46
2023-05-07T21:54:58.124Z,10.36
2023-05-07T21:57:50.783Z,10.56
2023-05-07T22:00:44.545Z,10.55
2023-05-07T22:03:30.580Z,10.42
2023-05-07T22:06:21.851Z,10.51
2023-05-07T22:09:08.097Z,10.55
2023-05-07T22:11:55.218Z,10.54
2023-05-07T22:14:41.503Z,10.53
2023-05-07T22:17:28.190Z,10.49
2023-05-07T22:20:14.529Z,10.45
2023-05-07T22:23:01.116Z,10.44
2023-05-07T22:25:47.314Z,10.46
2023-05-07T22:28:34.562Z,10.45
2023-05-07T22:31:20.877Z,10.46
2023-05-07T22:34:07.143Z,10.43
2023-05-07T22:36:53.485Z,10.14
2023-05-07T22:39:42.029Z,10.16
2023-05-07T22:42:28.215Z,9.95
2023-05-07T22:45:14.340Z,9.62
2023-05-07T22:48:00.763Z,9.66
2023-05-07T22:50:46.945Z,9.67
2023-05-07T22:53:32.810Z,9.78
2023-05-07T22:56:19.179Z,9.85
2023-05-07T22:59:05.136Z,10.02
2023-05-07T23:01:52.074Z,9.73
2023-05-07T23:04:37.967Z,9.99
2023-05-07T23:07:24.605Z,9.64
2023-05-07T23:10:10.786Z,9.84
2023-05-07T23:12:57.150Z,9.64
2023-05-07T23:15:43.717Z,9.65
2023-05-07T23:18:32.596Z,9.91
2023-05-07T23:21:18.408Z,9.77
2023-05-07T23:24:05.076Z,9.45
2023-05-07T23:26:50.962Z,9.57
2023-05-07T23:29:37.454Z,9.30
2023-05-07T23:32:23.781Z,9.21
2023-05-07T23:35:10.279Z,8.90
2023-05-07T23:37:56.430Z,8.83
2023-05-07T23:40:42.870Z,9.00
2023-05-07T23:43:29.112Z,8.79
2023-05-07T23:46:15.740Z,8.93
2023-05-07T23:49:01.573Z,8.81
2023-05-07T23:51:48.310Z,8.57
2023-05-07T23:54:33.977Z,8.71
2023-05-07T23:57:20.700Z,8.87
